Time;durP1;ratioP1;P1;durP2;ratioP2;P2;SDS_P1;SDS_P2;PMS_P1;PMS_P2;Temp;Humidity;BMP_temperature;BMP_pressure;BME280_temperature;BME280_humidity;BME280_pressure;Samples;Min_cycle;Max_cycle;Signal;HPM_P1;HPM_P2
2023/11/27 00:02:13;;;;;;;0.80;0.80;;;4.90;99.90;;;;;;5026731;28;20037;-79
2023/11/27 00:04:39;;;;;;;0.40;0.40;;;4.80;99.90;;;;;;5032033;28;20040;-79
2023/11/27 00:07:05;;;;;;;2.08;1.30;;;4.80;99.90;;;;;;5015141;28;20040;-79
2023/11/27 00:09:31;;;;;;;0.60;0.60;;;4.80;99.90;;;;;;5015815;28;20672;-79
2023/11/27 00:11:57;;;;;;;0.60;0.60;;;4.80;99.90;;;;;;5012457;28;20048;-78
2023/11/27 00:14:23;;;;;;;0.70;0.70;;;4.80;99.90;;;;;;5038760;28;20399;-79
2023/11/27 00:16:48;;;;;;;0.80;0.80;;;4.80;99.90;;;;;;5030876;28;20052;-78
2023/11/27 00:19:14;;;;;;;1.10;1.00;;;4.80;99.90;;;;;;5020328;28;20037;-79
2023/11/27 00:21:40;;;;;;;0.60;0.60;;;4.70;99.90;;;;;;5041649;28;20107;-79
2023/11/27 00:24:06;;;;;;;0.60;0.60;;;4.70;99.90;;;;;;5039030;28;20052;-79
2023/11/27 00:26:31;;;;;;;0.95;0.75;;;4.60;99.90;;;;;;5042004;28;20060;-79
2023/11/27 00:28:57;;;;;;;0.68;0.68;;;4.60;99.90;;;;;;5045523;28;20044;-78
2023/11/27 00:31:23;;;;;;;3.15;1.25;;;4.60;99.90;;;;;;5027929;28;20065;-78
2023/11/27 00:33:49;;;;;;;1.02;1.02;;;4.60;99.90;;;;;;5039901;28;20060;-78
2023/11/27 00:36:15;;;;;;;;;;;4.60;99.90;;;;;;5030489;28;20510;-78
2023/11/27 00:38:41;;;;;;;0.98;0.98;;;4.60;99.90;;;;;;5020626;28;19928;-80
2023/11/27 00:41:07;;;;;;;2.45;1.75;;;4.80;99.90;;;;;;5043126;28;20148;-79
2023/11/27 00:43:33;;;;;;;0.93;0.93;;;4.60;99.90;;;;;;5042786;28;20040;-79
2023/11/27 00:46:00;;;;;;;1.42;1.42;;;4.80;99.90;;;;;;5025388;28;20091;-79
2023/11/27 00:48:26;;;;;;;0.88;0.88;;;4.60;99.90;;;;;;5039542;28;20049;-80
2023/11/27 00:50:52;;;;;;;0.40;0.40;;;4.70;99.90;;;;;;5045821;28;20033;-79
2023/11/27 00:53:18;;;;;;;0.45;0.45;;;4.50;99.90;;;;;;5043615;28;20116;-79
2023/11/27 00:55:44;;;;;;;;;;;4.60;99.90;;;;;;5044126;28;20057;-79
2023/11/27 00:58:10;;;;;;;1.13;0.93;;;4.60;99.90;;;;;;5025425;28;19929;-79
2023/11/27 01:00:36;;;;;;;;;;;4.50;99.90;;;;;;5035526;28;20514;-79
2023/11/27 01:03:02;;;;;;;0.60;0.60;;;4.60;99.90;;;;;;5041616;28;19963;-78
2023/11/27 01:05:28;;;;;;;;;;;4.60;99.90;;;;;;5046308;28;20037;-78
2023/11/27 01:07:55;;;;;;;1.88;1.13;;;4.60;99.90;;;;;;5023514;28;19932;-78
2023/11/27 01:10:21;;;;;;;0.60;0.60;;;4.50;99.90;;;;;;5041688;28;20912;-79
2023/11/27 01:12:47;;;;;;;1.73;0.80;;;4.60;99.90;;;;;;5043305;28;20072;-78
2023/11/27 01:15:13;;;;;;;0.57;0.57;;;4.70;99.90;;;;;;5040311;28;20040;-80
2023/11/27 01:17:39;;;;;;;0.73;0.73;;;4.60;99.90;;;;;;5044734;28;20114;-78
2023/11/27 01:20:07;;;;;;;;;;;4.60;99.90;;;;;;5041130;28;20084;-77
2023/11/27 01:22:34;;;;;;;0.77;0.77;;;4.60;99.90;;;;;;5044089;28;19924;-79
2023/11/27 01:24:59;;;;;;;1.05;1.05;;;4.60;99.90;;;;;;5024705;28;20041;-79
2023/11/27 01:27:25;;;;;;;0.75;0.75;;;4.60;99.90;;;;;;5040532;28;20479;-80
2023/11/27 01:29:51;;;;;;;3.60;1.65;;;4.60;99.90;;;;;;5039071;28;20459;-77
2023/11/27 01:32:16;;;;;;;0.75;0.75;;;5.30;99.90;;;;;;5025807;28;20391;-78
2023/11/27 01:34:42;;;;;;;0.95;0.90;;;4.60;99.90;;;;;;5038342;28;20037;-78
2023/11/27 01:37:08;;;;;;;1.85;1.58;;;4.70;99.90;;;;;;5045234;28;20397;-80
2023/11/27 01:39:36;;;;;;;1.10;1.10;;;4.70;99.90;;;;;;5040592;28;20128;-80
2023/11/27 01:42:04;;;;;;;1.15;1.15;;;4.70;99.90;;;;;;5038161;28;20053;-81
2023/11/27 01:44:30;;;;;;;1.50;1.45;;;4.70;99.90;;;;;;5036090;28;20124;-79
2023/11/27 01:46:56;;;;;;;6.38;2.50;;;4.70;99.90;;;;;;5021335;28;20128;-79
2023/11/27 01:49:22;;;;;;;1.13;1.13;;;4.70;99.90;;;;;;5040529;28;20052;-78
2023/11/27 01:51:50;;;;;;;0.43;0.43;;;4.70;99.90;;;;;;5041165;28;20053;-78
2023/11/27 01:54:15;;;;;;;0.60;0.60;;;4.70;99.90;;;;;;5042524;28;20102;-79
2023/11/27 01:56:46;;;;;;;0.82;0.82;;;4.70;99.90;;;;;;5045087;28;20549;-80
2023/11/27 01:59:12;;;;;;;0.57;0.57;;;4.70;99.90;;;;;;5024967;28;20098;-80
2023/11/27 02:01:38;;;;;;;1.05;1.05;;;4.60;99.90;;;;;;5038079;28;20098;-79
2023/11/27 02:04:04;;;;;;;0.80;0.80;;;4.70;99.90;;;;;;5041782;28;20482;-80
2023/11/27 02:06:30;;;;;;;1.90;1.80;;;4.70;99.90;;;;;;5042291;28;20041;-80
2023/11/27 02:08:56;;;;;;;2.78;2.60;;;4.70;99.90;;;;;;5047927;28;20091;-79
2023/11/27 02:11:22;;;;;;;3.28;3.15;;;4.60;99.90;;;;;;5041861;28;20517;-78
2023/11/27 02:13:48;;;;;;;0.85;0.85;;;4.60;99.90;;;;;;5023279;28;20049;-77
2023/11/27 02:16:16;;;;;;;0.82;0.82;;;4.50;99.90;;;;;;5029872;28;20067;-80
2023/11/27 02:18:42;;;;;;;0.98;0.98;;;4.60;99.90;;;;;;5021145;28;20072;-79
2023/11/27 02:21:08;;;;;;;0.70;0.70;;;4.60;99.90;;;;;;5039070;28;20095;-79
2023/11/27 02:23:34;;;;;;;1.67;1.67;;;4.50;99.90;;;;;;5043112;28;20067;-78
2023/11/27 02:26:00;;;;;;;0.98;0.98;;;4.60;99.90;;;;;;5037834;28;20491;-80
2023/11/27 02:28:26;;;;;;;0.60;0.60;;;4.60;99.90;;;;;;5026097;28;20044;-80
2023/11/27 02:30:52;;;;;;;0.60;0.60;;;4.50;99.90;;;;;;5029497;28;20048;-79
2023/11/27 02:33:17;;;;;;;0.60;0.60;;;4.60;99.90;;;;;;5025079;28;20485;-78
2023/11/27 02:35:43;;;;;;;0.47;0.47;;;4.60;99.90;;;;;;5027161;28;20119;-79
2023/11/27 02:38:09;;;;;;;1.02;1.02;;;4.60;99.90;;;;;;5041049;28;20076;-78
2023/11/27 02:40:35;;;;;;;0.68;0.68;;;4.60;99.90;;;;;;5041120;28;20040;-78
2023/11/27 02:43:00;;;;;;;0.85;0.85;;;4.60;99.90;;;;;;5037972;28;20083;-78
2023/11/27 02:45:26;;;;;;;1.38;0.88;;;4.60;99.90;;;;;;5026130;28;20029;-80
2023/11/27 02:47:52;;;;;;;;;;;4.60;99.90;;;;;;5023565;28;20040;-78
2023/11/27 02:50:18;;;;;;;0.88;0.88;;;4.60;99.90;;;;;;5040366;28;20011;-79
2023/11/27 02:52:45;;;;;;;;;;;4.60;99.90;;;;;;5036208;28;20504;-77
2023/11/27 02:55:11;;;;;;;0.50;0.50;;;4.70;99.90;;;;;;5022477;28;19925;-79
2023/11/27 02:57:37;;;;;;;;;;;4.60;99.90;;;;;;5041187;28;20035;-77
2023/11/27 03:00:08;;;;;;;0.90;0.77;;;4.60;99.90;;;;;;5021888;28;19921;-78
2023/11/27 03:02:33;;;;;;;0.57;0.57;;;4.60;99.90;;;;;;5044266;28;20508;-77
2023/11/27 03:04:59;;;;;;;0.60;0.60;;;4.50;99.90;;;;;;5043298;28;20049;-78
2023/11/27 03:07:25;;;;;;;2.53;0.77;;;4.50;99.90;;;;;;5041518;28;20045;-77
2023/11/27 03:09:50;;;;;;;0.70;0.70;;;4.50;99.90;;;;;;5025225;28;20033;-77
2023/11/27 03:12:16;;;;;;;0.82;0.82;;;4.50;99.90;;;;;;5025318;28;20060;-77
2023/11/27 03:14:42;;;;;;;0.80;0.80;;;4.50;99.90;;;;;;5042135;28;20622;-77
2023/11/27 03:17:08;;;;;;;0.50;0.50;;;4.60;99.90;;;;;;5044356;28;20072;-77
2023/11/27 03:19:37;;;;;;;0.55;0.55;;;4.40;99.90;;;;;;5042694;28;20037;-77
2023/11/27 03:22:03;;;;;;;0.60;0.60;;;4.40;99.90;;;;;;5018060;28;20092;-77
2023/11/27 03:24:29;;;;;;;0.50;0.50;;;4.50;99.90;;;;;;5037517;28;20080;-77
2023/11/27 03:26:54;;;;;;;0.98;0.98;;;4.40;99.90;;;;;;5036068;28;20482;-77
2023/11/27 03:29:20;;;;;;;0.60;0.60;;;4.40;99.90;;;;;;5023000;28;20486;-77
2023/11/27 03:31:45;;;;;;;0.80;0.80;;;4.40;99.90;;;;;;5036643;28;20376;-77
2023/11/27 03:34:11;;;;;;;0.40;0.40;;;4.40;99.90;;;;;;5036179;28;20495;-77
2023/11/27 03:36:37;;;;;;;1.23;1.08;;;4.40;99.90;;;;;;5034376;28;20037;-77
2023/11/27 03:39:03;;;;;;;0.63;0.63;;;4.40;99.90;;;;;;5027697;28;20077;-79
2023/11/27 03:41:28;;;;;;;0.60;0.60;;;4.30;99.90;;;;;;5041612;28;20052;-78
2023/11/27 03:43:54;;;;;;;0.60;0.60;;;4.50;99.90;;;;;;5046294;28;20379;-77
2023/11/27 03:46:20;;;;;;;0.40;0.40;;;4.40;99.90;;;;;;5037049;28;20115;-77
2023/11/27 03:48:46;;;;;;;0.75;0.75;;;4.40;99.90;;;;;;5036954;28;20672;-77
2023/11/27 03:51:11;;;;;;;0.70;0.70;;;4.40;99.90;;;;;;5035143;28;20565;-77
2023/11/27 03:53:37;;;;;;;0.60;0.60;;;4.30;99.90;;;;;;5040203;28;20129;-79
2023/11/27 03:56:04;;;;;;;0.65;0.65;;;4.30;99.90;;;;;;5036091;28;20053;-78
2023/11/27 03:58:30;;;;;;;0.40;0.40;;;4.30;99.90;;;;;;5039362;28;20048;-77
2023/11/27 04:00:57;;;;;;;0.57;0.57;;;4.30;99.90;;;;;;5035268;28;20090;-78
2023/11/27 04:03:23;;;;;;;1.85;1.10;;;4.30;99.90;;;;;;5041399;28;20048;-79
2023/11/27 04:05:50;;;;;;;;;;;4.40;99.90;;;;;;5045182;28;20371;-79
2023/11/27 04:08:16;;;;;;;0.98;0.98;;;4.20;99.90;;;;;;5037769;28;19927;-78
2023/11/27 04:10:41;;;;;;;0.55;0.55;;;4.20;99.90;;;;;;5020840;28;20044;-79
2023/11/27 04:13:07;;;;;;;1.15;1.13;;;4.20;99.90;;;;;;5023964;28;20051;-79
2023/11/27 04:15:33;;;;;;;0.55;0.55;;;4.20;99.90;;;;;;5038440;28;20103;-78
2023/11/27 04:18:00;;;;;;;;;;;4.20;99.90;;;;;;5040137;28;20383;-78
2023/11/27 04:20:26;;;;;;;1.42;1.42;;;4.20;99.90;;;;;;5027921;28;20810;-78
2023/11/27 04:22:51;;;;;;;0.70;0.70;;;4.20;99.90;;;;;;5041056;28;20491;-78
2023/11/27 04:25:17;;;;;;;0.90;0.90;;;4.20;99.90;;;;;;5043410;28;20102;-78
2023/11/27 04:27:43;;;;;;;0.70;0.70;;;4.20;99.90;;;;;;5020154;28;20038;-80
2023/11/27 04:30:09;;;;;;;0.70;0.70;;;4.10;99.90;;;;;;5039878;28;20052;-78
2023/11/27 04:32:34;;;;;;;0.50;0.50;;;4.10;99.90;;;;;;5027108;28;20478;-80
2023/11/27 04:35:00;;;;;;;0.60;0.60;;;4.10;99.90;;;;;;5041229;28;20041;-79
2023/11/27 04:37:26;;;;;;;0.60;0.60;;;4.10;99.90;;;;;;5045023;28;20078;-79
2023/11/27 04:39:51;;;;;;;0.45;0.45;;;4.20;99.90;;;;;;5036419;28;20077;-79
2023/11/27 04:42:18;;;;;;;1.02;0.95;;;4.10;99.90;;;;;;5047703;28;20474;-79
2023/11/27 04:44:44;;;;;;;0.50;0.50;;;4.10;99.90;;;;;;5024030;28;20049;-80
2023/11/27 04:47:09;;;;;;;0.73;0.73;;;4.10;99.90;;;;;;5040864;28;20518;-79
2023/11/27 04:49:35;;;;;;;0.43;0.43;;;4.10;99.90;;;;;;5048440;28;20513;-79
2023/11/27 04:52:01;;;;;;;0.55;0.55;;;4.00;99.90;;;;;;5044771;28;20076;-78
2023/11/27 04:54:27;;;;;;;0.60;0.60;;;4.10;99.90;;;;;;5042439;28;20045;-79
2023/11/27 04:56:53;;;;;;;0.60;0.60;;;4.00;99.90;;;;;;5023708;28;20078;-78
2023/11/27 04:59:18;;;;;;;0.50;0.50;;;3.90;99.90;;;;;;5041441;28;20395;-78
2023/11/27 05:01:45;;;;;;;0.40;0.40;;;3.90;99.90;;;;;;5028964;28;20040;-78
2023/11/27 05:04:12;;;;;;;0.50;0.50;;;4.00;99.90;;;;;;5022997;28;20405;-78
2023/11/27 05:06:38;;;;;;;0.82;0.82;;;4.00;99.90;;;;;;5030791;28;20086;-79
2023/11/27 05:09:04;;;;;;;0.50;0.50;;;3.80;99.90;;;;;;5043490;28;20056;-80
2023/11/27 05:11:30;;;;;;;;;;;3.70;99.90;;;;;;5035905;28;20048;-79
2023/11/27 05:13:56;;;;;;;1.00;1.00;;;3.70;99.90;;;;;;5043587;28;19924;-79
2023/11/27 05:16:22;;;;;;;0.40;0.40;;;3.60;99.90;;;;;;5038821;28;20055;-79
2023/11/27 05:18:47;;;;;;;0.40;0.40;;;3.60;99.90;;;;;;5043920;28;20123;-78
2023/11/27 05:21:14;;;;;;;0.50;0.50;;;3.50;99.90;;;;;;5047511;28;20056;-80
2023/11/27 05:23:43;;;;;;;0.88;0.88;;;3.50;99.90;;;;;;5042908;28;20053;-79
2023/11/27 05:26:11;;;;;;;0.60;0.60;;;3.70;99.90;;;;;;5034357;28;20413;-80
2023/11/27 05:28:38;;;;;;;0.60;0.60;;;3.50;99.90;;;;;;5047531;28;20069;-80
2023/11/27 05:31:05;;;;;;;0.50;0.50;;;3.50;99.90;;;;;;5043145;28;20501;-79
2023/11/27 05:33:31;;;;;;;0.55;0.55;;;3.50;99.90;;;;;;5026582;28;20431;-80
2023/11/27 05:35:57;;;;;;;;;;;3.30;99.90;;;;;;5039222;28;20044;-79
2023/11/27 05:38:23;;;;;;;0.60;0.60;;;3.40;99.90;;;;;;5038025;28;19929;-78
2023/11/27 05:40:50;;;;;;;0.60;0.60;;;3.30;99.90;;;;;;5026825;28;21280;-78
2023/11/27 05:43:17;;;;;;;0.40;0.40;;;3.40;99.90;;;;;;5021914;28;21141;-80
2023/11/27 05:45:43;;;;;;;0.60;0.60;;;3.40;99.90;;;;;;5038124;28;20718;-79
2023/11/27 05:48:09;;;;;;;0.65;0.65;;;3.40;99.90;;;;;;5045935;28;20041;-79
2023/11/27 05:50:41;;;;;;;0.60;0.60;;;3.30;99.90;;;;;;5039795;28;20056;-79
2023/11/27 05:53:09;;;;;;;0.60;0.60;;;3.30;99.90;;;;;;5039972;28;20082;-80
2023/11/27 05:55:36;;;;;;;0.55;0.55;;;3.30;99.90;;;;;;5044276;28;20040;-79
2023/11/27 05:58:03;;;;;;;0.63;0.63;;;3.40;99.90;;;;;;5043881;28;20048;-79
2023/11/27 06:00:30;;;;;;;0.57;0.57;;;3.30;99.90;;;;;;5023857;28;20387;-79
2023/11/27 06:02:57;;;;;;;0.50;0.50;;;3.30;99.90;;;;;;5043216;28;20486;-78
2023/11/27 06:05:22;;;;;;;;;;;3.30;99.90;;;;;;5040191;28;20063;-78
2023/11/27 06:07:48;;;;;;;0.65;0.65;;;3.30;99.90;;;;;;5043384;28;19921;-78
2023/11/27 06:10:15;;;;;;;0.50;0.50;;;3.30;99.90;;;;;;5040939;28;20521;-76
2023/11/27 06:12:40;;;;;;;;;;;3.20;99.90;;;;;;5040010;28;20037;-78
2023/11/27 06:15:06;;;;;;;0.50;0.50;;;3.20;99.90;;;;;;5047820;28;20003;-78
2023/11/27 06:17:32;;;;;;;0.52;0.52;;;3.10;99.90;;;;;;5041009;28;20053;-78
2023/11/27 06:19:58;;;;;;;0.65;0.65;;;3.10;99.90;;;;;;5044256;28;20102;-78
2023/11/27 06:22:23;;;;;;;0.52;0.52;;;3.10;99.90;;;;;;5041926;28;20091;-77
2023/11/27 06:24:49;;;;;;;0.60;0.60;;;3.10;99.90;;;;;;5040225;28;20479;-77
2023/11/27 06:27:15;;;;;;;0.57;0.57;;;3.10;99.90;;;;;;5041517;28;20393;-78
2023/11/27 06:29:41;;;;;;;;;;;2.90;99.90;;;;;;5038660;28;20049;-78
2023/11/27 06:32:07;;;;;;;0.70;0.70;;;3.10;99.90;;;;;;5036151;28;20008;-78
2023/11/27 06:34:32;;;;;;;0.50;0.50;;;3.20;99.90;;;;;;5040512;28;20047;-78
2023/11/27 06:36:58;;;;;;;0.60;0.60;;;3.10;99.90;;;;;;5037354;28;20045;-79
2023/11/27 06:39:26;;;;;;;0.43;0.43;;;3.00;99.90;;;;;;5040332;28;20048;-78
2023/11/27 06:41:55;;;;;;;0.65;0.65;;;3.00;99.90;;;;;;5039239;28;20451;-78
2023/11/27 06:44:20;;;;;;;0.60;0.60;;;2.90;99.90;;;;;;5041473;28;20037;-77
2023/11/27 06:46:46;;;;;;;0.60;0.60;;;2.70;99.90;;;;;;5040770;28;20071;-77
2023/11/27 06:49:12;;;;;;;0.50;0.50;;;2.90;99.90;;;;;;5020427;28;20496;-77
2023/11/27 06:51:39;;;;;;;0.60;0.60;;;2.80;99.90;;;;;;5036811;28;20040;-77
2023/11/27 06:54:05;;;;;;;0.50;0.50;;;2.90;99.90;;;;;;5022651;28;20669;-79
2023/11/27 06:56:33;;;;;;;0.60;0.60;;;2.90;99.90;;;;;;5038482;28;20045;-79
2023/11/27 06:59:05;;;;;;;0.40;0.40;;;2.90;99.90;;;;;;5021129;28;20454;-78
2023/11/27 07:01:32;;;;;;;0.60;0.60;;;2.80;99.90;;;;;;5023155;28;20037;-77
2023/11/27 07:03:58;;;;;;;0.70;0.70;;;2.70;99.90;;;;;;5040027;28;20033;-77
2023/11/27 07:06:24;;;;;;;;;;;3.00;99.90;;;;;;5022796;28;20093;-78
2023/11/27 07:08:50;;;;;;;0.50;0.50;;;2.90;99.90;;;;;;5038716;28;19921;-77
2023/11/27 07:11:24;;;;;;;0.60;0.60;;;2.80;99.90;;;;;;5041096;28;20056;-79
2023/11/27 07:13:50;;;;;;;0.60;0.60;;;2.80;99.90;;;;;;5043924;28;20048;-78
2023/11/27 07:16:17;;;;;;;0.60;0.60;;;2.80;99.90;;;;;;5041474;28;20049;-79
2023/11/27 07:18:46;;;;;;;0.70;0.70;;;2.80;99.90;;;;;;5039609;28;20045;-79
2023/11/27 07:21:12;;;;;;;0.50;0.50;;;2.80;99.90;;;;;;5038653;28;20414;-79
2023/11/27 07:23:41;;;;;;;;;;;2.80;99.90;;;;;;5031492;28;20048;-80
2023/11/27 07:26:08;;;;;;;0.60;0.60;;;2.80;99.90;;;;;;5020625;28;20366;-79
2023/11/27 07:28:34;;;;;;;0.55;0.55;;;3.20;99.90;;;;;;5033801;28;20107;-80
2023/11/27 07:31:02;;;;;;;0.90;0.90;;;2.70;99.90;;;;;;5013012;28;20059;-80
2023/11/27 07:33:28;;;;;;;0.80;0.80;;;3.00;99.90;;;;;;5036399;28;20052;-80
2023/11/27 07:35:54;;;;;;;0.50;0.50;;;2.50;99.90;;;;;;5025283;28;20045;-81
2023/11/27 07:38:20;;;;;;;0.68;0.68;;;2.70;99.90;;;;;;5031989;28;20041;-80
2023/11/27 07:40:46;;;;;;;0.60;0.60;;;2.70;99.90;;;;;;5040704;28;20441;-78
2023/11/27 07:43:12;;;;;;;0.60;0.60;;;2.60;99.90;;;;;;5033170;28;20226;-78
2023/11/27 07:45:37;;;;;;;0.52;0.52;;;2.50;99.90;;;;;;5008061;28;20054;-78
2023/11/27 07:48:03;;;;;;;0.60;0.60;;;2.80;99.90;;;;;;5018579;28;20072;-78
2023/11/27 07:50:29;;;;;;;0.50;0.50;;;2.70;99.90;;;;;;5039921;28;20037;-78
2023/11/27 07:52:55;;;;;;;;;;;2.50;99.90;;;;;;5014936;28;20124;-77
2023/11/27 07:55:21;;;;;;;0.50;0.50;;;2.60;99.90;;;;;;5007956;28;19916;-80
2023/11/27 07:57:47;;;;;;;0.55;0.55;;;2.80;99.90;;;;;;5032396;28;20040;-78
2023/11/27 08:00:15;;;;;;;0.63;0.63;;;2.70;99.90;;;;;;5045431;28;20040;-77
2023/11/27 08:02:44;;;;;;;0.60;0.60;;;2.70;99.90;;;;;;5021370;28;20448;-78
2023/11/27 08:05:09;;;;;;;0.60;0.60;;;2.70;99.90;;;;;;5044205;28;20071;-78
2023/11/27 08:07:36;;;;;;;0.52;0.52;;;2.70;99.90;;;;;;5046227;28;20049;-79
2023/11/27 08:10:03;;;;;;;0.60;0.60;;;2.60;99.90;;;;;;5043181;28;20375;-79
2023/11/27 08:12:29;;;;;;;0.52;0.52;;;2.70;99.90;;;;;;5044158;28;20042;-79
2023/11/27 08:14:55;;;;;;;0.50;0.50;;;2.60;99.90;;;;;;5008903;28;20131;-80
2023/11/27 08:17:20;;;;;;;0.50;0.50;;;2.70;99.90;;;;;;5017449;28;20372;-80
2023/11/27 08:19:46;;;;;;;0.57;0.57;;;2.60;99.90;;;;;;5040343;28;20191;-79
2023/11/27 08:22:12;;;;;;;0.60;0.60;;;2.60;99.90;;;;;;5044204;28;20479;-79
2023/11/27 08:24:40;;;;;;;;;;;2.60;99.90;;;;;;5041718;28;20083;-78
2023/11/27 08:27:06;;;;;;;0.50;0.50;;;2.60;99.90;;;;;;5040019;28;20111;-76
2023/11/27 08:29:32;;;;;;;0.60;0.60;;;2.60;99.90;;;;;;5007835;28;20044;-78
2023/11/27 08:31:59;;;;;;;0.60;0.60;;;2.60;99.90;;;;;;5044706;28;20053;-78
2023/11/27 08:34:26;;;;;;;0.80;0.80;;;2.60;99.90;;;;;;5018228;28;20046;-79
2023/11/27 08:36:51;;;;;;;0.60;0.60;;;2.80;99.90;;;;;;5034790;28;20593;-78
2023/11/27 08:39:20;;;;;;;0.73;0.73;;;2.60;99.90;;;;;;5040055;28;20128;-78
2023/11/27 08:41:51;;;;;;;0.57;0.57;;;2.60;99.90;;;;;;5044618;28;20091;-79
2023/11/27 08:44:17;;;;;;;0.60;0.60;;;2.60;99.90;;;;;;5044321;28;20050;-78
2023/11/27 08:46:43;;;;;;;;;;;2.60;99.90;;;;;;5042984;28;20478;-79
2023/11/27 08:49:10;;;;;;;0.60;0.60;;;2.60;99.90;;;;;;5043087;28;20011;-79
2023/11/27 08:51:36;;;;;;;0.60;0.60;;;2.70;99.90;;;;;;5038591;28;20044;-78
2023/11/27 08:54:02;;;;;;;0.63;0.63;;;2.70;99.90;;;;;;5021867;28;20041;-79
2023/11/27 08:56:33;;;;;;;0.50;0.50;;;2.70;99.90;;;;;;5042141;28;20107;-79
2023/11/27 08:59:00;;;;;;;0.40;0.40;;;2.70;99.90;;;;;;5043897;28;20119;-78
2023/11/27 09:01:26;;;;;;;0.70;0.70;;;2.70;99.90;;;;;;5041301;28;20037;-79
2023/11/27 09:03:52;;;;;;;0.70;0.70;;;2.70;99.90;;;;;;5048488;28;20051;-79
2023/11/27 09:06:19;;;;;;;0.50;0.50;;;2.90;99.90;;;;;;5040137;28;20077;-79
2023/11/27 09:08:45;;;;;;;0.55;0.55;;;2.70;99.90;;;;;;5041579;28;20041;-79
2023/11/27 09:11:11;;;;;;;;;;;2.80;99.90;;;;;;5025262;28;20044;-79
2023/11/27 09:13:37;;;;;;;0.50;0.50;;;2.80;99.90;;;;;;5014464;28;19920;-78
2023/11/27 09:16:03;;;;;;;0.52;0.52;;;2.80;99.90;;;;;;5024008;28;20046;-79
2023/11/27 09:18:31;;;;;;;;;;;2.90;99.90;;;;;;5029369;28;20506;-80
2023/11/27 09:20:57;;;;;;;0.60;0.60;;;2.90;99.90;;;;;;5032589;28;19979;-80
2023/11/27 09:23:26;;;;;;;0.60;0.60;;;2.90;99.90;;;;;;5040113;28;20121;-79
2023/11/27 09:25:51;;;;;;;0.57;0.57;;;2.90;99.90;;;;;;5023686;28;20566;-79
2023/11/27 09:28:17;;;;;;;0.52;0.52;;;2.90;99.90;;;;;;5018510;28;20052;-78
2023/11/27 09:30:43;;;;;;;0.65;0.65;;;2.80;99.90;;;;;;5006090;28;20072;-78
2023/11/27 09:33:08;;;;;;;0.70;0.70;;;2.90;99.90;;;;;;5042553;28;20470;-80
2023/11/27 09:35:34;;;;;;;0.60;0.60;;;3.00;99.90;;;;;;5006237;28;20410;-79
2023/11/27 09:38:00;;;;;;;0.60;0.60;;;3.10;99.90;;;;;;5037801;28;20064;-80
2023/11/27 09:40:31;;;;;;;0.65;0.65;;;2.90;99.90;;;;;;5028752;28;20555;-79
2023/11/27 09:42:57;;;;;;;0.70;0.70;;;3.10;99.90;;;;;;5038845;28;20529;-80
2023/11/27 09:45:23;;;;;;;0.70;0.70;;;3.10;99.90;;;;;;5041572;28;20044;-80
2023/11/27 09:47:49;;;;;;;0.63;0.63;;;3.20;99.90;;;;;;5045778;28;20049;-80
2023/11/27 09:50:18;;;;;;;0.70;0.70;;;3.40;99.90;;;;;;5038383;28;20106;-79
2023/11/27 09:53:04;;;;;;;0.60;0.60;;;3.20;99.90;;;;;;5036379;28;20088;-80
2023/11/27 09:55:38;;;;;;;0.60;0.60;;;3.20;99.90;;;;;;5033327;28;20040;-79
2023/11/27 09:58:10;;;;;;;0.70;0.70;;;3.30;99.90;;;;;;5025113;28;20114;-80
2023/11/27 10:00:42;;;;;;;0.50;0.50;;;3.30;99.90;;;;;;5034642;28;20045;-80
2023/11/27 10:03:08;;;;;;;0.70;0.70;;;3.30;99.90;;;;;;5023152;28;20037;-80
2023/11/27 10:05:34;;;;;;;0.65;0.65;;;3.40;99.90;;;;;;5036793;28;20041;-80
2023/11/27 10:08:03;;;;;;;;;;;3.40;99.90;;;;;;5037821;28;20485;-80
2023/11/27 10:10:29;;;;;;;0.50;0.50;;;3.40;99.90;;;;;;5037827;28;20338;-81
2023/11/27 10:12:59;;;;;;;0.60;0.60;;;3.40;99.90;;;;;;5046835;28;20514;-79
2023/11/27 10:15:28;;;;;;;0.60;0.60;;;3.40;99.90;;;;;;5037573;28;20048;-79
2023/11/27 10:17:59;;;;;;;0.30;0.30;;;3.40;99.90;;;;;;5041524;28;20088;-80
2023/11/27 10:20:25;;;;;;;0.50;0.50;;;3.40;99.90;;;;;;5042571;28;20143;-79
2023/11/27 10:22:52;;;;;;;0.50;0.50;;;3.40;99.90;;;;;;5023990;28;20444;-80
2023/11/27 10:25:23;;;;;;;0.60;0.60;;;3.80;99.90;;;;;;5017275;28;20045;-80
2023/11/27 10:27:56;;;;;;;0.50;0.50;;;3.50;99.90;;;;;;5039576;28;20038;-80
2023/11/27 10:30:25;;;;;;;0.70;0.70;;;3.70;99.90;;;;;;5016565;28;20033;-79
2023/11/27 10:32:54;;;;;;;0.60;0.60;;;3.40;99.90;;;;;;5036534;28;20148;-80
2023/11/27 10:35:23;;;;;;;0.50;0.50;;;3.60;99.90;;;;;;5037039;28;20105;-80
2023/11/27 10:37:49;;;;;;;0.60;0.60;;;3.40;99.90;;;;;;5039800;28;20118;-79
2023/11/27 10:40:17;;;;;;;0.50;0.50;;;3.60;99.90;;;;;;5038974;28;20055;-79
2023/11/27 10:42:47;;;;;;;0.63;0.63;;;3.40;99.90;;;;;;5034445;28;20047;-79
2023/11/27 10:45:23;;;;;;;0.60;0.60;;;3.60;99.90;;;;;;5034414;28;20049;-79
2023/11/27 10:47:51;;;;;;;0.60;0.60;;;3.50;99.90;;;;;;5024020;28;20041;-79
2023/11/27 10:50:19;;;;;;;0.57;0.57;;;3.50;99.90;;;;;;5013014;28;20046;-79
2023/11/27 10:52:49;;;;;;;0.70;0.70;;;3.50;99.90;;;;;;5025009;28;20056;-79
2023/11/27 10:55:17;;;;;;;0.60;0.60;;;3.70;99.90;;;;;;5025612;28;20037;-79
2023/11/27 10:57:48;;;;;;;0.90;0.60;;;3.50;99.90;;;;;;5031889;28;20044;-79
2023/11/27 11:00:28;;;;;;;0.50;0.50;;;3.50;99.90;;;;;;5030384;28;20037;-80
2023/11/27 11:03:07;;;;;;;0.50;0.50;;;3.60;99.90;;;;;;5020059;28;20044;-78
2023/11/27 11:06:03;;;;;;;0.50;0.50;;;3.60;99.90;;;;;;5039006;28;20547;-78
2023/11/27 11:08:32;;;;;;;1.38;0.85;;;3.60;99.90;;;;;;5008192;28;20057;-79
2023/11/27 11:11:01;;;;;;;0.55;0.55;;;3.50;99.90;;;;;;5037744;28;20099;-80
2023/11/27 11:13:28;;;;;;;0.50;0.50;;;3.60;99.90;;;;;;5014864;28;20091;-79
2023/11/27 11:16:03;;;;;;;0.57;0.57;;;3.50;99.90;;;;;;5005025;28;20041;-79
2023/11/27 11:18:51;;;;;;;0.63;0.63;;;3.50;99.90;;;;;;5037334;28;20490;-79
2023/11/27 11:21:39;;;;;;;0.40;0.40;;;3.50;99.90;;;;;;5024916;28;20103;-80
2023/11/27 11:24:26;;;;;;;0.60;0.60;;;3.50;99.90;;;;;;5038885;28;20051;-79
2023/11/27 11:27:17;;;;;;;0.60;0.60;;;3.50;99.90;;;;;;5038435;28;20092;-79
2023/11/27 11:29:44;;;;;;;0.60;0.60;;;3.50;99.90;;;;;;5039118;28;20471;-81
2023/11/27 11:32:16;;;;;;;0.50;0.50;;;3.40;99.90;;;;;;5016905;28;20053;-79
2023/11/27 11:34:53;;;;;;;0.50;0.50;;;3.60;99.90;;;;;;5027111;28;20102;-78
2023/11/27 11:37:20;;;;;;;0.60;0.60;;;3.40;99.90;;;;;;5027066;28;20497;-79
2023/11/27 11:39:49;;;;;;;0.50;0.50;;;3.50;99.90;;;;;;5039472;28;20514;-78
2023/11/27 11:42:20;;;;;;;0.75;0.55;;;3.40;99.90;;;;;;5040225;28;20068;-79
2023/11/27 11:45:03;;;;;;;0.50;0.50;;;3.40;99.90;;;;;;5053073;28;20402;-79
2023/11/27 11:47:33;;;;;;;0.70;0.70;;;3.40;99.90;;;;;;5044888;28;20045;-78
2023/11/27 11:50:47;;;;;;;0.60;0.60;;;2.90;99.90;;;;;;5042017;28;20068;-79
2023/11/27 11:53:21;;;;;;;1.95;1.52;;;3.40;99.90;;;;;;5047382;28;20040;-80
2023/11/27 11:55:50;;;;;;;0.65;0.65;;;3.40;99.90;;;;;;5042338;28;20415;-79
2023/11/27 11:58:18;;;;;;;0.52;0.52;;;3.30;99.90;;;;;;5025317;28;20045;-79
2023/11/27 12:00:45;;;;;;;0.60;0.60;;;3.30;99.90;;;;;;5023642;28;20049;-79
2023/11/27 12:03:17;;;;;;;0.60;0.60;;;3.30;99.90;;;;;;5042322;28;20037;-78
2023/11/27 12:05:53;;;;;;;0.50;0.50;;;3.30;99.90;;;;;;5021002;28;20037;-79
2023/11/27 12:08:22;;;;;;;0.60;0.60;;;3.30;99.90;;;;;;5028015;28;20070;-79
2023/11/27 12:10:57;;;;;;;0.63;0.63;;;3.30;99.90;;;;;;5031254;28;20045;-79
2023/11/27 12:13:24;;;;;;;0.50;0.50;;;3.20;99.90;;;;;;5049330;28;20044;-79
2023/11/27 12:15:56;;;;;;;0.60;0.60;;;3.30;99.90;;;;;;5023644;28;20099;-78
2023/11/27 12:18:23;;;;;;;1.23;0.70;;;3.20;99.90;;;;;;5046016;28;20045;-78
2023/11/27 12:20:49;;;;;;;0.50;0.50;;;3.20;99.90;;;;;;5044162;28;20360;-79
2023/11/27 12:23:15;;;;;;;0.50;0.50;;;3.10;99.90;;;;;;5035391;28;20116;-78
2023/11/27 12:25:41;;;;;;;0.70;0.70;;;3.10;99.90;;;;;;5035775;28;20033;-79
2023/11/27 12:28:07;;;;;;;;;;;3.10;99.90;;;;;;5040881;28;20053;-80
2023/11/27 12:30:34;;;;;;;0.68;0.68;;;3.10;99.90;;;;;;5028838;28;19943;-80
2023/11/27 12:33:04;;;;;;;0.40;0.40;;;2.90;99.90;;;;;;5024416;28;20052;-80
2023/11/27 12:35:33;;;;;;;0.60;0.60;;;3.10;99.90;;;;;;5037743;28;20394;-79
2023/11/27 12:38:05;;;;;;;0.60;0.60;;;3.10;99.90;;;;;;5041272;28;20041;-80
2023/11/27 12:40:34;;;;;;;0.47;0.47;;;2.90;99.90;;;;;;5035089;28;20037;-79
2023/11/27 12:43:03;;;;;;;0.68;0.68;;;3.10;99.90;;;;;;5038716;28;20470;-79
2023/11/27 12:45:31;;;;;;;0.50;0.50;;;3.10;99.90;;;;;;5039332;28;20044;-79
2023/11/27 12:47:57;;;;;;;0.50;0.50;;;3.10;99.90;;;;;;5041080;28;20490;-79
2023/11/27 12:50:31;;;;;;;0.50;0.50;;;3.20;99.90;;;;;;5038986;28;20125;-79
2023/11/27 12:53:07;;;;;;;0.55;0.55;;;3.20;99.90;;;;;;5025640;28;20631;-79
2023/11/27 12:55:36;;;;;;;0.60;0.60;;;3.00;99.90;;;;;;5046414;28;20048;-79
2023/11/27 12:58:10;;;;;;;0.60;0.60;;;3.30;99.90;;;;;;5042944;28;20158;-79
2023/11/27 13:00:39;;;;;;;0.63;0.63;;;3.10;99.90;;;;;;5032819;28;20080;-79
2023/11/27 13:03:14;;;;;;;0.50;0.50;;;3.10;99.90;;;;;;5038159;28;20057;-79
2023/11/27 13:05:41;;;;;;;0.65;0.65;;;2.90;99.90;;;;;;5040588;28;20038;-79